createdAt,value
2023-04-01T00:00:42.809Z,981
2023-04-01T00:01:58.122Z,981
2023-04-01T00:03:14.421Z,981
2023-04-01T00:04:30.717Z,981
2023-04-01T00:05:46.993Z,981
2023-04-01T00:07:03.000Z,981.1
2023-04-01T00:08:19.597Z,981
2023-04-01T00:09:35.886Z,981
2023-04-01T00:10:52.172Z,981
2023-04-01T00:12:08.467Z,981
2023-04-01T00:13:24.759Z,981
2023-04-01T00:14:41.064Z,981
2023-04-01T00:15:57.347Z,981
2023-04-01T00:17:13.654Z,981
2023-04-01T00:18:28.958Z,981
2023-04-01T00:19:45.252Z,981
2023-04-01T00:21:01.539Z,981.1
2023-04-01T00:22:17.837Z,981
2023-04-01T00:23:34.138Z,981
2023-04-01T00:24:50.431Z,981
2023-04-01T00:26:06.724Z,981
2023-04-01T00:27:23.017Z,981
2023-04-01T00:28:39.305Z,981
2023-04-01T00:29:55.599Z,981
2023-04-01T00:31:11.902Z,980.9
2023-04-01T00:33:44.489Z,981
2023-04-01T00:34:59.799Z,981
2023-04-01T00:36:16.088Z,981
2023-04-01T00:37:32.392Z,981
2023-04-01T00:38:48.682Z,981
2023-04-01T00:41:21.259Z,981
2023-04-01T00:42:37.557Z,980.9
2023-04-01T00:43:53.852Z,980.9
2023-04-01T00:45:10.155Z,981
2023-04-01T00:46:26.444Z,981
2023-04-01T00:47:42.740Z,981
2023-04-01T00:48:59.025Z,981
2023-04-01T00:50:15.324Z,981
2023-04-01T00:51:30.631Z,981
2023-04-01T00:52:46.933Z,981
2023-04-01T00:54:03.231Z,981
2023-04-01T00:55:19.507Z,981
2023-04-01T00:56:35.813Z,981
2023-04-01T00:57:52.109Z,981
2023-04-01T00:59:08.406Z,981
2023-04-01T01:00:24.686Z,981
2023-04-01T01:01:40.986Z,981.1
2023-04-01T01:04:13.566Z,981
2023-04-01T01:05:29.862Z,981
2023-04-01T01:06:46.156Z,981
2023-04-01T01:08:01.485Z,981
2023-04-01T01:09:17.774Z,981
2023-04-01T01:10:34.068Z,981
2023-04-01T01:11:50.347Z,981
2023-04-01T01:13:06.656Z,981
2023-04-01T01:14:22.937Z,981
2023-04-01T01:15:39.230Z,981
2023-04-01T01:16:55.533Z,981
2023-04-01T01:18:11.837Z,981
2023-04-01T01:19:28.117Z,981
2023-04-01T01:20:44.421Z,981
2023-04-01T01:22:00.720Z,981
2023-04-01T01:23:17.005Z,981
2023-04-01T01:24:32.316Z,981
2023-04-01T01:27:04.895Z,981
2023-04-01T01:28:21.205Z,981
2023-04-01T01:29:37.496Z,981
2023-04-01T01:30:53.776Z,981
2023-04-01T01:32:10.072Z,981
2023-04-01T01:33:26.368Z,980.9
2023-04-01T01:34:42.657Z,980.9
2023-04-01T01:35:58.951Z,980.9
2023-04-01T01:37:15.250Z,980.9
2023-04-01T01:38:31.540Z,980.9
2023-04-01T01:39:47.849Z,980.9
2023-04-01T01:41:03.152Z,980.8
2023-04-01T01:42:19.442Z,980.9
2023-04-01T01:43:35.748Z,980.8
2023-04-01T01:44:52.037Z,980.8
2023-04-01T01:46:08.326Z,980.9
2023-04-01T01:47:24.617Z,980.9
2023-04-01T01:48:40.927Z,980.8
2023-04-01T01:49:57.209Z,980.9
2023-04-01T01:51:13.496Z,980.8
2023-04-01T01:52:29.796Z,980.9
2023-04-01T01:53:46.099Z,980.9
2023-04-01T01:55:02.397Z,980.9
2023-04-01T01:57:34.967Z,980.9
2023-04-01T01:58:50.283Z,981
2023-04-01T02:00:06.590Z,981
2023-04-01T02:01:22.874Z,981
2023-04-01T02:02:39.178Z,981
2023-04-01T02:03:55.456Z,980.9
2023-04-01T02:05:11.749Z,981
2023-04-01T02:06:28.052Z,981
2023-04-01T02:07:44.348Z,980.9
2023-04-01T02:09:00.605Z,981
2023-04-01T02:10:16.892Z,981
2023-04-01T02:11:33.202Z,981
2023-04-01T02:12:49.492Z,981
2023-04-01T02:14:05.789Z,981
2023-04-01T02:15:21.104Z,980.9
2023-04-01T02:16:37.384Z,981
2023-04-01T02:17:53.687Z,980.9
2023-04-01T02:19:09.977Z,980.9
2023-04-01T02:20:26.262Z,981
2023-04-01T02:21:42.560Z,980.9
2023-04-01T02:22:58.854Z,981
2023-04-01T02:24:15.149Z,980.9
2023-04-01T02:25:31.448Z,980.9
2023-04-01T02:28:04.029Z,981
2023-04-01T02:29:20.323Z,980.9
2023-04-01T02:30:36.623Z,980.9
2023-04-01T02:31:51.925Z,980.9
2023-04-01T02:33:08.238Z,981
2023-04-01T02:34:24.524Z,980.9
2023-04-01T02:35:40.809Z,981
2023-04-01T02:36:57.110Z,980.9
2023-04-01T02:38:13.409Z,981
2023-04-01T02:39:29.702Z,981
2023-04-01T02:40:45.986Z,981
2023-04-01T02:42:02.277Z,981
2023-04-01T02:43:18.587Z,980.9
2023-04-01T02:44:34.876Z,981
2023-04-01T02:45:51.159Z,981
2023-04-01T02:47:07.451Z,981
2023-04-01T02:48:22.778Z,981.1
2023-04-01T02:49:39.075Z,981
2023-04-01T02:50:55.357Z,981.1
2023-04-01T02:52:11.655Z,981
2023-04-01T02:53:27.955Z,981.1
2023-04-01T02:54:44.235Z,981.1
2023-04-01T02:56:00.527Z,981
2023-04-01T02:57:16.829Z,981
2023-04-01T02:58:33.121Z,981.1
2023-04-01T02:59:49.405Z,981.1
2023-04-01T03:01:05.710Z,981.1
2023-04-01T03:03:38.295Z,981.1
2023-04-01T03:04:53.604Z,981
2023-04-01T03:06:09.903Z,981.1
2023-04-01T03:07:26.197Z,981.1
2023-04-01T03:08:42.490Z,981.1
2023-04-01T03:09:58.781Z,981.1
2023-04-01T03:11:15.079Z,981.1
2023-04-01T03:12:31.369Z,981.1
2023-04-01T03:13:47.000Z,981.1
2023-04-01T03:15:03.968Z,981
2023-04-01T03:16:20.242Z,981.1
2023-04-01T03:17:36.547Z,981.1
2023-04-01T03:18:52.846Z,981.1
2023-04-01T03:20:09.134Z,981.1
2023-04-01T03:21:24.449Z,981.1
2023-04-01T03:22:40.736Z,981
2023-04-01T03:23:57.022Z,981
2023-04-01T03:25:13.334Z,981.1
2023-04-01T03:26:29.619Z,981
2023-04-01T03:27:45.911Z,981
2023-04-01T03:29:02.204Z,981
2023-04-01T03:30:18.506Z,981.1
2023-04-01T03:31:34.790Z,981.1
2023-04-01T03:32:51.100Z,981
2023-04-01T03:34:07.390Z,981.1
2023-04-01T03:35:23.670Z,981.1
2023-04-01T03:36:39.976Z,981.1
2023-04-01T03:37:55.285Z,981.1
2023-04-01T03:39:11.577Z,981.1
2023-04-01T03:40:27.868Z,981.1
2023-04-01T03:41:44.161Z,981.1
2023-04-01T03:43:00.448Z,981.1
2023-04-01T03:44:16.761Z,981.1
2023-04-01T03:45:33.052Z,981.2
2023-04-01T03:46:49.340Z,981.1
2023-04-01T03:48:05.635Z,981.1
2023-04-01T03:49:21.921Z,981.2
2023-04-01T03:50:38.222Z,981.1
2023-04-01T03:51:54.518Z,981.1
2023-04-01T03:53:10.810Z,981.2
2023-04-01T03:54:26.126Z,981.2
2023-04-01T03:55:42.418Z,981.2
2023-04-01T03:56:58.708Z,981.2
2023-04-01T03:58:14.999Z,981.2
2023-04-01T03:59:31.305Z,981.2
2023-04-01T04:00:47.599Z,981.3
2023-04-01T04:02:03.882Z,981.2
2023-04-01T04:03:20.173Z,981.3
2023-04-01T04:04:36.466Z,981.3
2023-04-01T04:05:52.765Z,981.3
2023-04-01T04:07:09.052Z,981.3
2023-04-01T04:08:25.347Z,981.3
2023-04-01T04:09:41.654Z,981.3
2023-04-01T04:10:57.935Z,981.3
2023-04-01T04:12:13.247Z,981.3
2023-04-01T04:13:29.541Z,981.3
2023-04-01T04:14:45.796Z,981.3
2023-04-01T04:16:02.036Z,981.4
2023-04-01T04:17:17.298Z,981.3
2023-04-01T04:18:33.540Z,981.3
2023-04-01T04:19:49.786Z,981.3
2023-04-01T04:21:06.036Z,981.4
2023-04-01T04:22:22.276Z,981.3
2023-04-01T04:23:38.512Z,981.4
2023-04-01T04:24:54.749Z,981.4
2023-04-01T04:26:10.990Z,981.4
2023-04-01T04:27:27.224Z,981.4
2023-04-01T04:28:43.476Z,981.5
2023-04-01T04:29:59.722Z,981.5
2023-04-01T04:31:15.960Z,981.5
2023-04-01T04:32:32.196Z,981.5
2023-04-01T04:33:47.439Z,981.5
2023-04-01T04:35:03.680Z,981.5
2023-04-01T04:36:19.937Z,981.5
2023-04-01T04:37:36.165Z,981.5
2023-04-01T04:38:52.403Z,981.5
2023-04-01T04:40:08.642Z,981.5
2023-04-01T04:41:24.888Z,981.5
2023-04-01T04:42:41.137Z,981.5
2023-04-01T04:43:57.371Z,981.5
2023-04-01T04:45:13.614Z,981.6
2023-04-01T04:46:29.847Z,981.5
2023-04-01T04:47:46.080Z,981.6
2023-04-01T04:49:02.331Z,981.6
2023-04-01T04:50:17.580Z,981.6
2023-04-01T04:51:33.817Z,981.6
2023-04-01T04:52:50.069Z,981.6
2023-04-01T04:54:06.294Z,981.6
2023-04-01T04:55:22.539Z,981.6
2023-04-01T04:56:38.789Z,981.6
2023-04-01T04:57:55.025Z,981.7
2023-04-01T04:59:11.274Z,981.6
2023-04-01T05:01:43.746Z,981.6
2023-04-01T05:02:59.985Z,981.7
2023-04-01T05:04:16.217Z,981.7
2023-04-01T05:05:32.458Z,981.7
2023-04-01T05:06:47.721Z,981.7
2023-04-01T05:08:03.955Z,981.7
2023-04-01T05:09:20.204Z,981.7
2023-04-01T05:10:36.442Z,981.7
2023-04-01T05:11:52.673Z,981.7
2023-04-01T05:13:08.924Z,981.7
2023-04-01T05:14:25.163Z,981.7
2023-04-01T05:15:41.393Z,981.8
2023-04-01T05:16:57.646Z,981.8
2023-04-01T05:18:13.883Z,981.7
2023-04-01T05:19:30.124Z,981.8
2023-04-01T05:20:46.365Z,981.8
2023-04-01T05:22:02.611Z,981.8
2023-04-01T05:23:17.846Z,981.8
2023-04-01T05:24:34.096Z,981.8
2023-04-01T05:25:50.337Z,981.8
2023-04-01T05:27:06.583Z,981.8
2023-04-01T05:28:22.817Z,981.8
2023-04-01T05:29:39.045Z,981.8
2023-04-01T05:30:55.298Z,981.9
2023-04-01T05:32:11.526Z,981.8
2023-04-01T05:33:27.776Z,981.8
2023-04-01T05:34:44.010Z,981.8
2023-04-01T05:36:00.249Z,981.8
2023-04-01T05:37:16.489Z,981.8
2023-04-01T05:38:32.740Z,981.8
2023-04-01T05:39:48.982Z,981.9
2023-04-01T05:41:04.238Z,981.8
2023-04-01T05:42:20.481Z,981.8
2023-04-01T05:43:36.715Z,981.7
2023-04-01T05:44:52.944Z,981.8
2023-04-01T05:46:09.184Z,981.8
2023-04-01T05:47:25.432Z,981.8
2023-04-01T05:48:41.672Z,981.8
2023-04-01T05:49:57.902Z,981.8
2023-04-01T05:51:14.142Z,981.8
2023-04-01T05:52:30.385Z,981.8
2023-04-01T05:53:46.622Z,981.8
2023-04-01T05:55:02.865Z,981.8
2023-04-01T05:56:19.111Z,981.8
2023-04-01T05:57:34.371Z,981.8
2023-04-01T05:58:50.617Z,981.8
2023-04-01T06:00:06.849Z,981.8
2023-04-01T06:01:23.085Z,981.8
2023-04-01T06:02:39.332Z,981.9
2023-04-01T06:03:55.574Z,981.9
2023-04-01T06:05:11.797Z,981.8
2023-04-01T06:06:28.057Z,981.8
2023-04-01T06:07:44.295Z,981.9
2023-04-01T06:09:00.531Z,981.8
2023-04-01T06:10:16.766Z,981.8
2023-04-01T06:11:33.009Z,981.9
2023-04-01T06:12:49.240Z,981.9
2023-04-01T06:14:04.504Z,981.9
2023-04-01T06:15:20.736Z,981.9
2023-04-01T06:16:36.973Z,981.9
2023-04-01T06:17:53.214Z,981.9
2023-04-01T06:19:09.454Z,982
2023-04-01T06:20:25.705Z,982
2023-04-01T06:21:41.936Z,982
2023-04-01T06:22:58.181Z,982
2023-04-01T06:24:14.425Z,982
2023-04-01T06:25:30.671Z,982
2023-04-01T06:26:46.897Z,982
2023-04-01T06:28:03.144Z,982
2023-04-01T06:29:19.389Z,982.1
2023-04-01T06:31:50.877Z,982.1
2023-04-01T06:33:07.118Z,982.1
2023-04-01T06:34:23.358Z,982.1
2023-04-01T06:35:39.596Z,982.1
2023-04-01T06:36:55.847Z,982.1
2023-04-01T06:38:12.076Z,982.1
2023-04-01T06:39:28.321Z,982.1
2023-04-01T06:40:44.557Z,982.1
2023-04-01T06:42:00.796Z,982.1
2023-04-01T06:43:17.050Z,982.1
2023-04-01T06:44:33.283Z,982
2023-04-01T06:45:49.528Z,982.1
2023-04-01T06:47:04.786Z,982.1
2023-04-01T06:48:21.015Z,982
2023-04-01T06:49:37.260Z,982.1
2023-04-01T06:50:53.491Z,982.1
2023-04-01T06:52:09.732Z,982
2023-04-01T06:53:25.968Z,982
2023-04-01T06:54:42.210Z,982
2023-04-01T06:55:58.450Z,982.1
2023-04-01T06:57:14.700Z,982.1
2023-04-01T06:58:30.942Z,982.1
2023-04-01T06:59:47.173Z,982.1
2023-04-01T07:01:03.426Z,982.1
2023-04-01T07:02:19.650Z,982.1
2023-04-01T07:03:34.919Z,982.1
2023-04-01T07:04:51.144Z,982.1
2023-04-01T07:06:07.395Z,982.1
2023-04-01T07:07:23.000Z,982.1
2023-04-01T07:08:39.879Z,982.1
2023-04-01T07:09:56.118Z,982.2
2023-04-01T07:11:12.356Z,982.1
2023-04-01T07:12:28.603Z,982.2
2023-04-01T07:13:44.843Z,982.1
2023-04-01T07:15:01.080Z,982.1
2023-04-01T07:16:17.321Z,982.2
2023-04-01T07:17:33.557Z,982.2
2023-04-01T07:18:49.793Z,982.2
2023-04-01T07:20:05.051Z,982.1
2023-04-01T07:21:21.284Z,982.2
2023-04-01T07:22:37.529Z,982.2
2023-04-01T07:23:53.778Z,982.2
2023-04-01T07:25:10.019Z,982.2
2023-04-01T07:26:26.250Z,982.2
2023-04-01T07:27:42.487Z,982.2
2023-04-01T07:28:58.720Z,982.2
2023-04-01T07:30:14.964Z,982.2
2023-04-01T07:31:31.208Z,982.2
2023-04-01T07:32:47.460Z,982.2
2023-04-01T07:34:03.690Z,982.2
2023-04-01T07:35:19.931Z,982.3
2023-04-01T07:36:35.181Z,982.3
2023-04-01T07:37:51.427Z,982.3
2023-04-01T07:39:07.664Z,982.3
2023-04-01T07:40:23.900Z,982.3
2023-04-01T07:41:40.137Z,982.3
2023-04-01T07:42:56.378Z,982.3
2023-04-01T07:44:12.630Z,982.3
2023-04-01T07:45:28.873Z,982.3
2023-04-01T07:46:45.116Z,982.4
2023-04-01T07:48:01.000Z,982.4
2023-04-01T07:49:17.590Z,982.4
2023-04-01T07:50:33.831Z,982.4
2023-04-01T07:51:50.072Z,982.4
2023-04-01T07:53:05.320Z,982.4
2023-04-01T07:54:21.555Z,982.4
2023-04-01T07:55:37.795Z,982.4
2023-04-01T07:56:54.031Z,982.4
2023-04-01T07:58:10.284Z,982.4
2023-04-01T07:59:26.513Z,982.5
2023-04-01T08:00:42.763Z,982.4
2023-04-01T08:03:15.245Z,982.5
2023-04-01T08:04:31.476Z,982.4
2023-04-01T08:05:47.721Z,982.5
2023-04-01T08:07:03.959Z,982.5
2023-04-01T08:08:20.210Z,982.5
2023-04-01T08:09:35.461Z,982.5
2023-04-01T08:10:51.702Z,982.5
2023-04-01T08:12:07.944Z,982.6
2023-04-01T08:13:24.183Z,982.5
2023-04-01T08:14:40.413Z,982.5
2023-04-01T08:15:56.646Z,982.5
2023-04-01T08:17:12.893Z,982.6
2023-04-01T08:18:29.142Z,982.7
2023-04-01T08:19:45.382Z,982.7
2023-04-01T08:21:01.617Z,982.7
2023-04-01T08:22:17.850Z,982.7
2023-04-01T08:23:34.093Z,982.7
2023-04-01T08:24:50.332Z,982.6
2023-04-01T08:26:05.582Z,982.7
2023-04-01T08:27:21.833Z,982.6
2023-04-01T08:28:38.069Z,982.7
2023-04-01T08:29:54.314Z,982.7
2023-04-01T08:31:10.558Z,982.7
2023-04-01T08:32:25.814Z,982.7
2023-04-01T08:33:42.060Z,982.7
2023-04-01T08:34:58.290Z,982.7
2023-04-01T08:36:14.538Z,982.7
2023-04-01T08:37:30.764Z,982.7
2023-04-01T08:38:47.017Z,982.7
2023-04-01T08:40:03.249Z,982.7
2023-04-01T08:41:19.491Z,982.7
2023-04-01T08:42:35.740Z,982.7
2023-04-01T08:43:51.963Z,982.6
2023-04-01T08:45:08.218Z,982.7
2023-04-01T08:46:24.449Z,982.6
2023-04-01T08:47:40.704Z,982.7
2023-04-01T08:48:55.950Z,982.6
2023-04-01T08:51:28.417Z,982.7
2023-04-01T08:52:44.672Z,982.8
2023-04-01T08:54:00.913Z,982.7
2023-04-01T08:55:17.153Z,982.7
2023-04-01T08:56:33.375Z,982.7
2023-04-01T08:57:49.625Z,982.7
2023-04-01T08:59:05.862Z,982.8
2023-04-01T09:00:22.106Z,982.8
2023-04-01T09:01:38.347Z,982.8
2023-04-01T09:02:54.584Z,982.7
2023-04-01T09:04:10.833Z,982.8
2023-04-01T09:05:26.087Z,982.8
2023-04-01T09:06:42.325Z,982.8
2023-04-01T09:07:58.561Z,982.7
2023-04-01T09:09:14.809Z,982.8
2023-04-01T09:11:47.286Z,982.8
2023-04-01T09:13:03.521Z,982.8
2023-04-01T09:14:19.766Z,982.8
2023-04-01T09:15:36.007Z,982.8
2023-04-01T09:16:52.248Z,982.8
2023-04-01T09:18:08.473Z,982.8
2023-04-01T09:19:24.723Z,982.8
2023-04-01T09:20:40.961Z,982.8
2023-04-01T09:21:56.204Z,982.8
2023-04-01T09:23:12.448Z,982.8
2023-04-01T09:24:28.704Z,982.8
2023-04-01T09:25:44.943Z,982.8
2023-04-01T09:27:01.174Z,982.8
2023-04-01T09:28:17.410Z,982.8
2023-04-01T09:29:33.651Z,982.8
2023-04-01T09:30:49.891Z,982.8
2023-04-01T09:32:06.143Z,982.8
2023-04-01T09:33:22.368Z,982.8
2023-04-01T09:34:38.621Z,982.8
2023-04-01T09:35:54.859Z,982.8
2023-04-01T09:37:11.085Z,982.8
2023-04-01T09:38:26.344Z,982.8
2023-04-01T09:39:42.584Z,982.8
2023-04-01T09:40:58.823Z,982.8
2023-04-01T09:42:15.073Z,982.8
2023-04-01T09:43:31.313Z,982.8
2023-04-01T09:44:47.543Z,982.8
2023-04-01T09:46:03.794Z,982.8
2023-04-01T09:47:20.031Z,982.9
2023-04-01T09:48:36.263Z,982.8
2023-04-01T09:49:52.514Z,982.9
2023-04-01T09:51:08.755Z,982.8
2023-04-01T09:52:24.986Z,982.8
2023-04-01T09:53:41.216Z,982.8
2023-04-01T09:54:56.488Z,982.8
2023-04-01T09:56:12.729Z,982.8
2023-04-01T09:57:28.952Z,982.8
2023-04-01T09:58:45.200Z,982.8
2023-04-01T10:00:01.439Z,982.8
2023-04-01T10:01:17.691Z,982.8
2023-04-01T10:02:33.916Z,982.8
2023-04-01T10:03:50.160Z,982.7
2023-04-01T10:05:06.402Z,982.8
2023-04-01T10:06:22.640Z,982.8
2023-04-01T10:07:38.889Z,982.8
2023-04-01T10:08:55.114Z,982.8
2023-04-01T10:10:11.351Z,982.8
2023-04-01T10:11:26.625Z,982.8
2023-04-01T10:12:42.859Z,982.8
2023-04-01T10:13:59.101Z,982.8
2023-04-01T10:15:15.336Z,982.8
2023-04-01T10:16:31.574Z,982.8
2023-04-01T10:17:47.811Z,982.8
2023-04-01T10:19:04.047Z,982.8
2023-04-01T10:20:20.295Z,982.9
2023-04-01T10:21:36.529Z,982.8
2023-04-01T10:22:52.783Z,982.8
2023-04-01T10:24:09.014Z,982.8
2023-04-01T10:25:25.262Z,982.8
2023-04-01T10:26:41.502Z,982.9
2023-04-01T10:27:56.743Z,982.8
2023-04-01T10:29:12.999Z,982.8
2023-04-01T10:30:29.222Z,982.8
2023-04-01T10:31:45.471Z,982.9
2023-04-01T10:33:01.719Z,982.8
2023-04-01T10:34:17.949Z,982.8
2023-04-01T10:35:34.203Z,982.8
2023-04-01T10:36:50.430Z,982.9
2023-04-01T10:38:06.676Z,982.9
2023-04-01T10:39:22.902Z,982.8
2023-04-01T10:40:39.000Z,982.8
2023-04-01T10:41:55.393Z,982.8
2023-04-01T10:43:11.638Z,982.9
2023-04-01T10:44:26.881Z,982.9
2023-04-01T10:45:43.125Z,982.9
2023-04-01T10:46:59.366Z,982.9
2023-04-01T10:48:15.603Z,982.8
2023-04-01T10:50:48.092Z,982.9
2023-04-01T10:52:04.333Z,982.8
2023-04-01T10:53:20.562Z,982.9
2023-04-01T10:54:36.809Z,982.9
2023-04-01T10:55:53.039Z,982.9
2023-04-01T10:57:09.281Z,982.9
2023-04-01T10:58:25.532Z,982.9
2023-04-01T10:59:41.762Z,982.8
2023-04-01T11:00:57.028Z,982.8
2023-04-01T11:02:13.259Z,982.9
2023-04-01T11:03:29.489Z,982.9
2023-04-01T11:04:45.749Z,982.9
2023-04-01T11:06:01.976Z,982.9
2023-04-01T11:07:18.228Z,982.9
2023-04-01T11:08:34.458Z,982.8
2023-04-01T11:09:50.704Z,982.9
2023-04-01T11:11:06.947Z,982.9
2023-04-01T11:12:23.184Z,982.9
2023-04-01T11:13:39.428Z,982.9
2023-04-01T11:14:55.668Z,982.9
2023-04-01T11:16:11.895Z,982.9
2023-04-01T11:17:27.154Z,982.9
2023-04-01T11:18:43.398Z,982.8
2023-04-01T11:19:59.636Z,982.9
2023-04-01T11:21:15.866Z,982.8
2023-04-01T11:22:32.103Z,982.8
2023-04-01T11:23:48.346Z,982.8
2023-04-01T11:25:04.584Z,982.8
2023-04-01T11:26:20.838Z,982.8
2023-04-01T11:27:37.082Z,982.8
2023-04-01T11:28:53.315Z,982.9
2023-04-01T11:30:09.546Z,982.8
2023-04-01T11:31:25.789Z,982.8
2023-04-01T11:32:42.032Z,982.8
2023-04-01T11:33:57.283Z,982.8
2023-04-01T11:35:13.518Z,982.8
2023-04-01T11:36:29.775Z,982.8
2023-04-01T11:37:46.011Z,982.8
2023-04-01T11:39:02.257Z,982.8
2023-04-01T11:40:18.497Z,982.8
2023-04-01T11:41:34.717Z,982.8
2023-04-01T11:42:50.963Z,982.8
2023-04-01T11:44:07.207Z,982.8
2023-04-01T11:45:23.444Z,982.8
2023-04-01T11:46:39.685Z,982.8
2023-04-01T11:47:55.920Z,982.8
2023-04-01T11:49:12.157Z,982.8
2023-04-01T11:50:27.414Z,982.9
2023-04-01T11:51:43.655Z,982.8
2023-04-01T11:52:59.903Z,982.9
2023-04-01T11:54:16.142Z,982.9
2023-04-01T11:55:32.388Z,982.8
2023-04-01T11:56:48.626Z,982.8
2023-04-01T11:58:04.863Z,982.9
2023-04-01T11:59:21.095Z,982.9
2023-04-01T12:00:37.353Z,982.9
2023-04-01T12:01:53.588Z,982.9
2023-04-01T12:03:09.814Z,982.9
2023-04-01T12:04:26.064Z,982.9
2023-04-01T12:06:58.546Z,982.9
2023-04-01T12:08:13.794Z,983
2023-04-01T12:09:30.044Z,982.9
2023-04-01T12:10:46.271Z,982.9
2023-04-01T12:12:02.521Z,983
2023-04-01T12:13:18.751Z,983
2023-04-01T12:14:34.999Z,983
2023-04-01T12:15:51.229Z,983
2023-04-01T12:17:07.473Z,983
2023-04-01T12:18:23.713Z,983
2023-04-01T12:19:39.957Z,983.1
2023-04-01T12:20:56.189Z,983.1
2023-04-01T12:22:12.433Z,983.1
2023-04-01T12:23:28.685Z,983.1
2023-04-01T12:24:43.939Z,983.1
2023-04-01T12:26:00.162Z,983.2
2023-04-01T12:27:16.415Z,983.2
2023-04-01T12:28:32.659Z,983.2
2023-04-01T12:29:48.894Z,983.2
2023-04-01T12:31:05.134Z,983.2
2023-04-01T12:32:21.377Z,983.2
2023-04-01T12:33:37.609Z,983.2
2023-04-01T12:34:53.856Z,983.2
2023-04-01T12:36:10.101Z,983.2
2023-04-01T12:37:26.336Z,983.3
2023-04-01T12:38:42.580Z,983.2
2023-04-01T12:39:58.816Z,983.3
2023-04-01T12:41:14.068Z,983.3
2023-04-01T12:42:30.319Z,983.2
2023-04-01T12:43:46.556Z,983.3
2023-04-01T12:45:02.793Z,983.3
2023-04-01T12:46:19.026Z,983.3
2023-04-01T12:47:35.398Z,983.3
2023-04-01T12:48:51.640Z,983.3
2023-04-01T12:50:07.874Z,983.3
2023-04-01T12:52:40.342Z,983.3
2023-04-01T12:53:56.583Z,983.3
2023-04-01T12:55:12.823Z,983.3
2023-04-01T12:56:29.078Z,983.4
2023-04-01T12:57:45.311Z,983.4
2023-04-01T12:59:01.544Z,983.3
2023-04-01T13:00:17.786Z,983.3
2023-04-01T13:01:34.025Z,983.4
2023-04-01T13:02:50.278Z,983.3
2023-04-01T13:04:06.505Z,983.4
2023-04-01T13:05:21.757Z,983.4
2023-04-01T13:06:38.010Z,983.4
2023-04-01T13:07:54.237Z,983.4
2023-04-01T13:09:10.479Z,983.4
2023-04-01T13:10:26.730Z,983.4
2023-04-01T13:11:42.970Z,983.4
2023-04-01T13:12:59.201Z,983.4
2023-04-01T13:14:15.454Z,983.5
2023-04-01T13:15:31.687Z,983.4
2023-04-01T13:16:47.934Z,983.5
2023-04-01T13:18:04.164Z,983.4
2023-04-01T13:19:20.401Z,983.5
2023-04-01T13:20:36.639Z,983.5
2023-04-01T13:21:51.896Z,983.4
2023-04-01T13:23:08.139Z,983.5
2023-04-01T13:24:24.382Z,983.5
2023-04-01T13:25:40.612Z,983.5
2023-04-01T13:26:56.872Z,983.5
2023-04-01T13:28:13.104Z,983.5
2023-04-01T13:29:29.351Z,983.5
2023-04-01T13:30:45.577Z,983.5
2023-04-01T13:32:01.827Z,983.5
2023-04-01T13:33:18.052Z,983.5
2023-04-01T13:34:34.303Z,983.4
2023-04-01T13:35:50.534Z,983.5
2023-04-01T13:37:06.772Z,983.5
2023-04-01T13:38:22.038Z,983.5
2023-04-01T13:39:38.275Z,983.5
2023-04-01T13:40:54.513Z,983.5
2023-04-01T13:42:10.747Z,983.6
2023-04-01T13:43:26.988Z,983.6
2023-04-01T13:44:43.233Z,983.5
2023-04-01T13:45:59.472Z,983.5
2023-04-01T13:48:31.950Z,983.6
2023-04-01T13:49:48.205Z,983.6
2023-04-01T13:51:04.429Z,983.7
2023-04-01T13:52:20.682Z,983.7
2023-04-01T13:53:36.911Z,983.7
2023-04-01T13:54:52.177Z,983.7
2023-04-01T13:56:08.410Z,983.7
2023-04-01T13:57:24.645Z,983.7
2023-04-01T13:58:40.889Z,983.7
2023-04-01T13:59:57.142Z,983.7
2023-04-01T14:01:13.365Z,983.7
2023-04-01T14:02:29.614Z,983.7
2023-04-01T14:03:45.853Z,983.7
2023-04-01T14:05:02.083Z,983.6
2023-04-01T14:06:18.329Z,983.7
2023-04-01T14:07:34.573Z,983.7
2023-04-01T14:08:50.820Z,983.7
2023-04-01T14:10:07.048Z,983.6
2023-04-01T14:11:22.299Z,983.7
2023-04-01T14:12:38.542Z,983.6
2023-04-01T14:13:54.795Z,983.7
2023-04-01T14:15:11.032Z,983.7
2023-04-01T14:16:27.269Z,983.7
2023-04-01T14:17:43.509Z,983.7
2023-04-01T14:18:59.747Z,983.7
2023-04-01T14:20:15.989Z,983.6
2023-04-01T14:21:32.225Z,983.7
2023-04-01T14:22:48.471Z,983.7
2023-04-01T14:24:04.713Z,983.7
2023-04-01T14:25:20.952Z,983.8
2023-04-01T14:26:37.194Z,983.8
2023-04-01T14:27:52.435Z,983.8
2023-04-01T14:29:08.691Z,983.7
2023-04-01T14:30:24.921Z,983.8
2023-04-01T14:31:41.170Z,983.8
2023-04-01T14:32:57.410Z,983.9
2023-04-01T14:34:13.639Z,983.9
2023-04-01T14:35:29.873Z,983.9
2023-04-01T14:36:46.117Z,983.9
2023-04-01T14:38:02.371Z,983.9
2023-04-01T14:39:18.601Z,983.9
2023-04-01T14:40:34.846Z,983.9
2023-04-01T14:41:51.080Z,983.9
2023-04-01T14:43:07.323Z,983.9
2023-04-01T14:44:22.573Z,983.9
2023-04-01T14:45:38.815Z,983.9
2023-04-01T14:46:55.059Z,983.9
2023-04-01T14:48:11.297Z,983.9
2023-04-01T14:49:27.532Z,984
2023-04-01T14:50:43.779Z,983.9
2023-04-01T14:52:00.022Z,984
2023-04-01T14:53:16.256Z,984
2023-04-01T14:54:32.504Z,984
2023-04-01T14:55:48.733Z,984
2023-04-01T14:57:04.969Z,984.1
2023-04-01T14:58:21.206Z,984
2023-04-01T14:59:37.460Z,984
2023-04-01T15:00:52.720Z,984
2023-04-01T15:02:08.947Z,984.1
2023-04-01T15:03:25.189Z,984.1
2023-04-01T15:04:41.442Z,984.1
2023-04-01T15:05:57.670Z,984.1
2023-04-01T15:07:13.922Z,984.1
2023-04-01T15:08:30.161Z,984.2
2023-04-01T15:09:46.391Z,984.2
2023-04-01T15:11:02.642Z,984.2
2023-04-01T15:12:18.870Z,984.2
2023-04-01T15:13:35.103Z,984.2
2023-04-01T15:14:51.351Z,984.2
2023-04-01T15:16:07.590Z,984.2
2023-04-01T15:17:22.854Z,984.2
2023-04-01T15:18:39.080Z,984.2
2023-04-01T15:19:55.318Z,984.3
2023-04-01T15:22:27.814Z,984.2
2023-04-01T15:23:44.050Z,984.2
2023-04-01T15:25:00.283Z,984.2
2023-04-01T15:26:16.533Z,984.3
2023-04-01T15:27:32.765Z,984.3
2023-04-01T15:28:49.014Z,984.3
2023-04-01T15:30:05.239Z,984.3
2023-04-01T15:31:21.495Z,984.3
2023-04-01T15:32:37.720Z,984.3
2023-04-01T15:33:52.987Z,984.3
2023-04-01T15:35:09.232Z,984.3
2023-04-01T15:36:25.465Z,984.3
2023-04-01T15:37:41.715Z,984.3
2023-04-01T15:38:57.943Z,984.3
2023-04-01T15:40:14.185Z,984.4
2023-04-01T15:41:30.416Z,984.3
2023-04-01T15:42:46.665Z,984.4
2023-04-01T15:44:02.906Z,984.4
2023-04-01T15:45:19.147Z,984.4
2023-04-01T15:46:35.376Z,984.4
2023-04-01T15:47:51.631Z,984.4
2023-04-01T15:49:07.862Z,984.5
2023-04-01T15:50:23.130Z,984.5
2023-04-01T15:51:39.369Z,984.4
2023-04-01T15:52:55.608Z,984.4
2023-04-01T15:55:28.073Z,984.5
2023-04-01T15:56:44.325Z,984.5
2023-04-01T15:58:00.566Z,984.5
2023-04-01T15:59:16.797Z,984.5
2023-04-01T16:00:33.045Z,984.5
2023-04-01T16:01:49.284Z,984.5
2023-04-01T16:03:05.513Z,984.6
2023-04-01T16:04:21.751Z,984.6
2023-04-01T16:05:38.003Z,984.6
2023-04-01T16:08:09.502Z,984.6
2023-04-01T16:09:25.736Z,984.6
2023-04-01T16:10:41.969Z,984.6
2023-04-01T16:11:58.216Z,984.6
2023-04-01T16:13:14.462Z,984.6
2023-04-01T16:14:30.697Z,984.6
2023-04-01T16:15:46.937Z,984.6
2023-04-01T16:17:03.170Z,984.7
2023-04-01T16:18:19.410Z,984.7
2023-04-01T16:19:35.659Z,984.7
2023-04-01T16:20:51.893Z,984.7
2023-04-01T16:22:08.127Z,984.8
2023-04-01T16:23:23.383Z,984.7
2023-04-01T16:24:39.627Z,984.8
2023-04-01T16:25:55.864Z,984.8
2023-04-01T16:27:12.103Z,984.8
2023-04-01T16:28:28.351Z,984.8
2023-04-01T16:29:44.585Z,984.8
2023-04-01T16:31:00.835Z,984.8
2023-04-01T16:32:17.078Z,984.8
2023-04-01T16:33:33.319Z,984.8
2023-04-01T16:34:49.541Z,984.9
2023-04-01T16:36:05.779Z,984.9
2023-04-01T16:37:22.020Z,984.9
2023-04-01T16:38:38.275Z,984.9
2023-04-01T16:39:53.526Z,984.9
2023-04-01T16:41:09.757Z,984.9
2023-04-01T16:42:25.997Z,985
2023-04-01T16:43:42.252Z,985
2023-04-01T16:44:58.496Z,985
2023-04-01T16:46:14.717Z,985
2023-04-01T16:47:30.974Z,985
2023-04-01T16:48:47.211Z,985
2023-04-01T16:50:03.437Z,985.1
2023-04-01T16:51:19.680Z,985.1
2023-04-01T16:52:35.935Z,985.1
2023-04-01T16:53:52.156Z,985
2023-04-01T16:55:08.402Z,985
2023-04-01T16:56:23.664Z,985.1